Main page
METAR-TAF:

METAR-TAF

Airports :

Jefferson City Memorial Airport

Jefferson City, Missouri, United States

latitude: 38-35-40N, longitude: 092-09-21W, elevation: 548 ft

Current weather observation

The report was made 59 minutes ago, at 04:53 UTC
Calm wind
Temperature 39°F
Humidity 75%
Pressure 30.23 in. Hg
Visibility: 10 miles
Clear sky

METAR: KJEF 220453Z AUTO 00000KT 10SM CLR 04/00 A3023 RMK AO2 SLP229 T00440000

Time: 00:52 (05:52 UTC)

Forecast

The report was made 32 minutes ago, at 05:20 UTC
Forecast valid from 22 at 06 UTC to 23 at 06 UTC
Wind 3 mph from variable directions
Visibility: 6 miles
Clear sky
From 22 at 1600 UTC
Wind 13 mph from the South/Southwest with gusts up to 23 mph
Visibility: 6 miles
Few clouds at a height of 25000 ft
From 23 at 0100 UTC
Wind 9 mph from the South/Southwest
Visibility: 6 miles
Few clouds at a height of 25000 ft

TAF: KJEF 220520Z 2206/2306 VRB03KT P6SM SKC FM221600 20011G20KT P6SM FEW250 FM230100 20008KT P6SM FEW250

Weather observations and forecasts of more than 4000 airports (METAR and TAF reports).

The available stations are represented by yellow and red dots on the map.

Hover mouse over dot to see the name of the station.

Then click to see weather observations and forecasts.

To change the map : click on the green buttons with a black cross to zoom in, on the green button with a dash to zoom out, or on the green arrows for adjacent maps.


METAR-TAF: